Time,TemperatureF,DewpointF,PressureIn,WindDirection,WindDirectionDegrees,WindSpeedMPH,WindSpeedGustMPH,Humidity,HourlyPrecipIn,Conditions,Clouds,dailyrainin,SoftwareType,DateUTC
2013-08-09 00:01:00,73.0,71.0,30.04,WNW,295,0.0,0.0,92,0.00,,,0.07,,2013-08-09 04:01:00,
2013-08-09 00:12:00,72.0,70.0,30.04,WNW,295,0.0,1.0,93,0.00,,,0.07,,2013-08-09 04:12:00,
2013-08-09 00:22:00,72.0,70.0,30.04,North,360,0.0,2.0,93,0.00,,,0.07,,2013-08-09 04:22:00,
2013-08-09 00:33:00,73.0,71.0,30.04,North,359,0.0,1.0,93,0.00,,,0.07,,2013-08-09 04:33:00,
2013-08-09 00:43:00,73.0,71.0,30.04,North,354,0.0,3.0,93,0.00,,,0.07,,2013-08-09 04:43:00,
2013-08-09 00:53:00,72.0,70.0,30.03,North,355,0.0,1.0,93,0.00,,,0.07,,2013-08-09 04:53:00,
2013-08-09 01:02:00,72.0,70.0,30.03,North,354,0.0,1.0,93,0.00,,,0.07,,2013-08-09 05:02:00,
2013-08-09 01:12:00,72.0,70.0,30.03,North,353,0.0,1.0,94,0.00,,,0.07,,2013-08-09 05:12:00,
2013-08-09 01:22:00,72.0,70.0,30.03,North,355,0.0,1.0,94,0.00,,,0.07,,2013-08-09 05:22:00,
2013-08-09 01:43:00,72.0,70.0,30.02,North,355,0.0,1.0,95,0.00,,,0.07,,2013-08-09 05:43:00,
2013-08-09 01:52:00,71.0,69.0,30.02,North,355,0.0,1.0,95,0.00,,,0.07,,2013-08-09 05:52:00,
2013-08-09 02:01:00,71.0,69.0,30.02,North,351,0.0,2.0,95,0.00,,,0.07,,2013-08-09 06:01:00,
2013-08-09 02:11:00,71.0,70.0,30.02,North,354,0.0,1.0,96,0.00,,,0.07,,2013-08-09 06:11:00,
2013-08-09 02:22:00,71.0,70.0,30.02,North,354,0.0,1.0,96,0.00,,,0.07,,2013-08-09 06:22:00,
2013-08-09 02:32:00,71.0,70.0,30.02,North,352,1.0,3.0,96,0.00,,,0.07,,2013-08-09 06:32:00,
2013-08-09 02:43:00,71.0,70.0,30.02,North,355,0.0,2.0,96,0.00,,,0.07,,2013-08-09 06:43:00,
2013-08-09 02:52:00,71.0,69.0,30.01,North,355,0.0,2.0,95,0.00,,,0.07,,2013-08-09 06:52:00,
2013-08-09 03:01:00,72.0,70.0,30.01,North,355,0.0,1.0,95,0.00,,,0.07,,2013-08-09 07:01:00,
2013-08-09 03:22:00,71.0,69.0,30.01,North,355,0.0,2.0,94,0.00,,,0.07,,2013-08-09 07:22:00,
2013-08-09 03:33:00,71.0,69.0,30.01,NNW,347,1.0,3.0,94,0.00,,,0.07,,2013-08-09 07:33:00,
2013-08-09 03:43:00,71.0,69.0,30.01,North,354,0.0,1.0,94,0.00,,,0.07,,2013-08-09 07:43:00,
2013-08-09 03:53:00,71.0,69.0,30.00,North,354,0.0,2.0,93,0.00,,,0.07,,2013-08-09 07:53:00,
2013-08-09 04:02:00,71.0,69.0,30.00,North,355,0.0,2.0,93,0.00,,,0.07,,2013-08-09 08:02:00,
2013-08-09 04:12:00,71.0,69.0,30.00,North,354,0.0,2.0,93,0.00,,,0.07,,2013-08-09 08:12:00,
2013-08-09 04:22:00,71.0,69.0,30.00,North,354,0.0,2.0,93,0.00,,,0.07,,2013-08-09 08:22:00,
2013-08-09 04:32:00,71.0,69.0,30.00,North,357,0.0,1.0,93,0.00,,,0.07,,2013-08-09 08:32:00,
2013-08-09 04:43:00,71.0,69.0,30.00,North,352,0.0,3.0,93,0.00,,,0.07,,2013-08-09 08:43:00,
2013-08-09 04:53:00,71.0,69.0,30.00,North,354,0.0,1.0,93,0.00,,,0.07,,2013-08-09 08:53:00,
2013-08-09 05:02:00,71.0,69.0,30.00,North,352,0.0,1.0,93,0.00,,,0.07,,2013-08-09 09:02:00,
2013-08-09 05:22:00,71.0,69.0,29.99,North,356,0.0,2.0,94,0.00,,,0.06,,2013-08-09 09:22:00,
2013-08-09 05:32:00,71.0,69.0,29.99,North,353,0.0,1.0,94,0.00,,,0.06,,2013-08-09 09:32:00,
2013-08-09 05:43:00,71.0,69.0,29.99,North,354,0.0,1.0,94,0.00,,,0.06,,2013-08-09 09:43:00,
2013-08-09 05:52:00,71.0,69.0,29.99,North,350,0.0,1.0,94,0.00,,,0.06,,2013-08-09 09:52:00,
2013-08-09 06:01:00,71.0,69.0,29.99,North,352,0.0,1.0,94,0.00,,,0.06,,2013-08-09 10:01:00,
2013-08-09 06:12:00,70.0,68.0,29.98,North,353,0.0,1.0,95,0.00,,,0.06,,2013-08-09 10:12:00,
2013-08-09 06:22:00,70.0,68.0,29.98,North,353,0.0,1.0,95,0.00,,,0.06,,2013-08-09 10:22:00,
2013-08-09 06:43:00,70.0,68.0,29.99,North,354,0.0,1.0,95,0.00,,,0.00,,2013-08-09 10:43:00,
2013-08-09 06:53:00,71.0,69.0,29.99,North,354,0.0,1.0,95,0.00,,,0.00,,2013-08-09 10:53:00,
2013-08-09 07:02:00,71.0,70.0,29.99,North,354,0.0,1.0,96,0.00,,,0.00,,2013-08-09 11:02:00,
2013-08-09 07:11:00,71.0,70.0,30.00,North,352,0.0,1.0,96,0.00,,,0.00,,2013-08-09 11:11:00,
2013-08-09 07:22:00,71.0,70.0,30.00,North,359,0.0,1.0,96,0.00,,,0.00,,2013-08-09 11:22:00,
2013-08-09 07:33:00,71.0,70.0,30.00,North,3,0.0,2.0,97,0.00,,,0.00,,2013-08-09 11:33:00,
2013-08-09 07:43:00,71.0,70.0,30.00,North,359,0.0,2.0,97,0.00,,,0.00,,2013-08-09 11:43:00,
2013-08-09 07:53:00,71.0,70.0,30.00,NNE,16,0.0,2.0,97,0.01,,,0.01,,2013-08-09 11:53:00,
2013-08-09 08:02:00,71.0,70.0,30.00,WNW,288,0.0,2.0,97,0.02,,,0.02,,2013-08-09 12:02:00,
2013-08-09 08:12:00,71.0,70.0,29.99,WNW,288,0.0,1.0,97,0.03,,,0.03,,2013-08-09 12:12:00,
2013-08-09 08:22:00,71.0,70.0,29.99,West,281,0.0,1.0,97,0.03,,,0.03,,2013-08-09 12:22:00,
2013-08-09 08:32:00,71.0,70.0,30.00,NNW,331,0.0,1.0,98,0.04,,,0.04,,2013-08-09 12:32:00,
2013-08-09 08:43:00,71.0,70.0,30.00,West,271,0.0,2.0,98,0.05,,,0.05,,2013-08-09 12:43:00,
2013-08-09 08:52:00,71.0,70.0,29.99,West,271,0.0,1.0,98,0.05,,,0.06,,2013-08-09 12:52:00,
2013-08-09 09:01:00,71.0,70.0,29.99,West,271,0.0,1.0,98,0.05,,,0.07,,2013-08-09 13:01:00,
2013-08-09 09:12:00,71.0,71.0,29.98,West,271,0.0,1.0,99,0.05,,,0.08,,2013-08-09 13:12:00,
2013-08-09 09:23:00,71.0,71.0,29.98,WNW,295,0.0,1.0,99,0.07,,,0.10,,2013-08-09 13:23:00,
2013-08-09 09:32:00,71.0,71.0,29.98,NNE,29,0.0,1.0,99,0.07,,,0.11,,2013-08-09 13:32:00,
2013-08-09 09:43:00,71.0,71.0,29.98,NNE,26,0.0,2.0,99,0.07,,,0.12,,2013-08-09 13:43:00,
2013-08-09 09:52:00,71.0,71.0,29.97,WNW,299,0.0,3.0,99,0.06,,,0.12,,2013-08-09 13:52:00,
2013-08-09 10:02:00,72.0,72.0,29.96,ESE,105,0.0,3.0,99,0.06,,,0.13,,2013-08-09 14:02:00,
2013-08-09 10:43:00,72.0,72.0,29.96,WNW,287,0.0,3.0,99,0.07,,,0.19,,2013-08-09 14:43:00,
2013-08-09 10:53:00,72.0,72.0,29.95,WNW,296,0.0,4.0,99,0.09,,,0.21,,2013-08-09 14:53:00,
2013-08-09 11:02:00,72.0,71.0,29.95,WNW,298,0.0,2.0,98,0.09,,,0.22,,2013-08-09 15:02:00,
2013-08-09 11:12:00,72.0,72.0,29.94,WNW,298,0.0,2.0,99,0.10,,,0.24,,2013-08-09 15:12:00,
2013-08-09 11:33:00,71.0,71.0,29.94,WNW,298,0.0,2.0,99,0.08,,,0.25,,2013-08-09 15:33:00,
2013-08-09 11:44:00,71.0,71.0,29.93,WNW,299,0.0,1.0,99,0.08,,,0.27,,2013-08-09 15:44:00,
2013-08-09 11:53:00,71.0,71.0,29.92,WNW,298,0.0,1.0,99,0.07,,,0.28,,2013-08-09 15:53:00,
2013-08-09 12:02:00,72.0,72.0,29.92,North,9,0.0,2.0,99,0.07,,,0.29,,2013-08-09 16:02:00,
2013-08-09 12:22:00,72.0,72.0,29.91,WNW,295,0.0,2.0,99,0.10,,,0.34,,2013-08-09 16:22:00,
2013-08-09 12:32:00,72.0,72.0,29.91,WNW,303,1.0,3.0,99,0.12,,,0.37,,2013-08-09 16:32:00,
2013-08-09 12:43:00,72.0,72.0,29.91,NW,309,1.0,3.0,99,0.11,,,0.38,,2013-08-09 16:43:00,
2013-08-09 12:53:00,72.0,72.0,29.90,NNE,29,0.0,2.0,99,0.11,,,0.39,,2013-08-09 16:53:00,
2013-08-09 13:02:00,72.0,72.0,29.90,NNE,29,0.0,2.0,99,0.11,,,0.39,,2013-08-09 17:02:00,
2013-08-09 13:22:00,72.0,72.0,29.89,NW,308,0.0,4.0,99,0.08,,,0.42,,2013-08-09 17:22:00,
2013-08-09 13:33:00,72.0,72.0,29.89,North,1,1.0,4.0,99,0.07,,,0.44,,2013-08-09 17:33:00,
2013-08-09 13:43:00,72.0,72.0,29.88,SSW,204,0.0,5.0,99,0.07,,,0.45,,2013-08-09 17:43:00,
2013-08-09 13:52:00,72.0,72.0,29.87,SW,230,0.0,3.0,99,0.08,,,0.47,,2013-08-09 17:52:00,
2013-08-09 14:22:00,72.0,72.0,29.86,NW,309,0.0,2.0,99,0.17,,,0.59,,2013-08-09 18:22:00,
2013-08-09 14:32:00,72.0,72.0,29.87,WNW,298,0.0,3.0,99,0.29,,,0.73,,2013-08-09 18:32:00,
2013-08-09 14:43:00,71.0,71.0,29.86,NW,309,1.0,6.0,99,0.39,,,0.84,,2013-08-09 18:43:00,
2013-08-09 14:53:00,71.0,71.0,29.85,WNW,283,1.0,5.0,99,0.44,,,0.91,,2013-08-09 18:53:00,
2013-08-09 15:02:00,71.0,71.0,29.85,WNW,287,0.0,2.0,99,0.51,,,0.99,,2013-08-09 19:02:00,
2013-08-09 15:11:00,71.0,71.0,29.84,WNW,297,1.0,3.0,100,0.53,,,1.04,,2013-08-09 19:11:00,
2013-08-09 16:11:00,71.0,71.0,29.78,NNE,12,0.0,3.0,100,0.38,,,1.42,,2013-08-09 20:11:00,
2013-08-09 16:22:00,71.0,71.0,29.78,East,100,0.0,2.0,100,0.39,,,1.46,,2013-08-09 20:22:00,
2013-08-09 16:32:00,71.0,71.0,29.78,North,11,1.0,3.0,100,0.27,,,1.48,,2013-08-09 20:32:00,
2013-08-09 16:43:00,71.0,71.0,29.78,North,9,2.0,4.0,100,0.23,,,1.51,,2013-08-09 20:43:00,
2013-08-09 16:52:00,71.0,71.0,29.78,North,11,0.0,2.0,100,0.31,,,1.62,,2013-08-09 20:52:00,
2013-08-09 17:22:00,72.0,72.0,29.78,North,11,0.0,1.0,100,0.16,,,1.62,,2013-08-09 21:22:00,
2013-08-09 17:33:00,72.0,72.0,29.78,North,11,0.0,1.0,100,0.14,,,1.62,,2013-08-09 21:33:00,
2013-08-09 17:43:00,72.0,72.0,29.77,North,11,0.0,1.0,100,0.10,,,1.62,,2013-08-09 21:43:00,
2013-08-09 17:52:00,72.0,72.0,29.77,North,11,0.0,1.0,100,0.00,,,1.62,,2013-08-09 21:52:00,
2013-08-09 18:02:00,73.0,73.0,29.77,North,10,0.0,1.0,100,0.00,,,1.62,,2013-08-09 22:02:00,
2013-08-09 18:22:00,74.0,74.0,29.76,North,8,0.0,1.0,100,0.00,,,1.62,,2013-08-09 22:22:00,
2013-08-09 18:32:00,73.0,73.0,29.76,North,8,0.0,1.0,100,0.00,,,1.62,,2013-08-09 22:32:00,
2013-08-09 18:42:00,73.0,73.0,29.76,North,8,0.0,1.0,100,0.00,,,1.62,,2013-08-09 22:42:00,
2013-08-09 18:52:00,73.0,73.0,29.75,North,8,0.0,1.0,100,0.00,,,1.62,,2013-08-09 22:52:00,
2013-08-09 19:02:00,73.0,73.0,29.76,North,9,0.0,1.0,100,0.00,,,1.62,,2013-08-09 23:02:00,
2013-08-09 19:22:00,73.0,73.0,29.76,North,8,0.0,1.0,100,0.00,,,1.62,,2013-08-09 23:22:00,
2013-08-09 19:43:00,73.0,73.0,29.75,North,7,0.0,1.0,100,0.00,,,1.62,,2013-08-09 23:43:00,
2013-08-09 19:52:00,73.0,73.0,29.75,North,8,0.0,1.0,100,0.00,,,1.62,,2013-08-09 23:52:00,
2013-08-09 20:01:00,73.0,73.0,29.77,North,6,0.0,2.0,100,0.00,,,1.62,,2013-08-10 00:01:00,
2013-08-09 20:22:00,73.0,73.0,29.78,North,7,0.0,0.0,100,0.00,,,1.62,,2013-08-10 00:22:00,
2013-08-09 20:33:00,73.0,73.0,29.79,North,6,0.0,1.0,100,0.00,,,1.62,,2013-08-10 00:33:00,
2013-08-09 20:43:00,73.0,73.0,29.79,North,6,0.0,0.0,100,0.00,,,1.62,,2013-08-10 00:43:00,
2013-08-09 20:52:00,73.0,73.0,29.79,North,6,0.0,0.0,100,0.00,,,1.62,,2013-08-10 00:52:00,
2013-08-09 21:02:00,73.0,73.0,29.79,North,6,0.0,0.0,100,0.00,,,1.62,,2013-08-10 01:02:00,
2013-08-09 21:11:00,73.0,73.0,29.79,North,6,0.0,0.0,100,0.00,,,1.62,,2013-08-10 01:11:00,
2013-08-09 21:22:00,72.0,72.0,29.80,North,6,0.0,0.0,100,0.00,,,1.62,,2013-08-10 01:22:00,
2013-08-09 21:32:00,72.0,72.0,29.80,North,6,0.0,0.0,100,0.00,,,1.62,,2013-08-10 01:32:00,
2013-08-09 21:42:00,72.0,72.0,29.80,North,7,0.0,1.0,100,0.00,,,1.62,,2013-08-10 01:42:00,
2013-08-09 21:52:00,72.0,72.0,29.80,North,7,0.0,1.0,100,0.00,,,1.62,,2013-08-10 01:52:00,
2013-08-09 22:03:00,72.0,72.0,29.80,North,7,0.0,1.0,100,0.00,,,1.62,,2013-08-10 02:03:00,
2013-08-09 22:11:00,72.0,72.0,29.80,North,7,0.0,1.0,100,0.00,,,1.62,,2013-08-10 02:11:00,
2013-08-09 22:21:00,72.0,72.0,29.80,North,7,0.0,1.0,100,0.00,,,1.62,,2013-08-10 02:21:00,
2013-08-09 22:32:00,72.0,72.0,29.80,North,7,0.0,1.0,100,0.00,,,1.62,,2013-08-10 02:32:00,
2013-08-09 22:42:00,72.0,72.0,29.80,North,7,0.0,1.0,100,0.00,,,1.62,,2013-08-10 02:42:00,
2013-08-09 22:52:00,72.0,72.0,29.80,North,7,0.0,1.0,100,0.00,,,1.62,,2013-08-10 02:52:00,
2013-08-09 23:01:00,70.0,70.0,29.80,North,7,0.0,0.0,100,0.00,,,1.62,,2013-08-10 03:01:00,
2013-08-09 23:11:00,70.0,70.0,29.80,North,7,0.0,0.0,100,0.00,,,1.62,,2013-08-10 03:11:00,
2013-08-09 23:22:00,70.0,70.0,29.80,North,7,0.0,0.0,100,0.00,,,1.62,,2013-08-10 03:22:00,
2013-08-09 23:32:00,70.0,70.0,29.80,North,7,0.0,0.0,100,0.00,,,1.62,,2013-08-10 03:32:00,
2013-08-09 23:42:00,70.0,70.0,29.80,North,7,0.0,0.0,100,0.00,,,1.62,,2013-08-10 03:42:00,
2013-08-09 23:52:00,69.0,69.0,29.81,North,7,0.0,0.0,100,0.00,,,1.62,,2013-08-10 03:52:00,